createdAt,value
2016-08-08T00:00:05.336Z,12.9
2016-08-08T00:00:15.343Z,12.7
2016-08-08T00:00:24.616Z,12.8
2016-08-08T00:00:35.352Z,13.6
2016-08-08T00:00:44.632Z,13.1
2016-08-08T00:00:55.362Z,13.1
2016-08-08T00:01:05.384Z,13.1
2016-08-08T00:01:14.646Z,13.2
2016-08-08T00:01:24.652Z,13.5
2016-08-08T00:01:35.392Z,13
2016-08-08T00:01:45.394Z,13.3
2016-08-08T00:01:55.405Z,13.7
2016-08-08T00:02:04.689Z,13.8
2016-08-08T00:02:15.411Z,13.8
2016-08-08T00:02:25.419Z,13.2
2016-08-08T00:02:34.691Z,13.5
2016-08-08T00:02:45.434Z,13.2
2016-08-08T00:02:54.704Z,13.2
2016-08-08T00:03:05.439Z,13.4
2016-08-08T00:03:14.721Z,13.6
2016-08-08T00:03:25.457Z,13.3
2016-08-08T00:03:34.730Z,13
2016-08-08T00:03:45.467Z,13.3
2016-08-08T00:03:55.469Z,13.7
2016-08-08T00:04:05.479Z,13.4
2016-08-08T00:04:14.020Z,13.4
2016-08-08T00:04:25.488Z,13.7
2016-08-08T00:04:35.495Z,13.7
2016-08-08T00:04:45.500Z,14.4
2016-08-08T00:04:54.769Z,13.8
2016-08-08T00:05:04.776Z,14
2016-08-08T00:05:14.057Z,14.6
2016-08-08T00:05:24.794Z,13.9
2016-08-08T00:05:34.802Z,13.8
2016-08-08T00:05:45.535Z,14
2016-08-08T00:05:55.546Z,14
2016-08-08T00:06:04.818Z,14
2016-08-08T00:06:15.560Z,14.7
2016-08-08T00:06:24.834Z,14.2
2016-08-08T00:06:35.569Z,14.2
2016-08-08T00:06:44.844Z,14.6
2016-08-08T00:06:55.579Z,14.1
2016-08-08T00:07:05.589Z,14.6
2016-08-08T00:07:15.590Z,14.1
2016-08-08T00:07:24.870Z,13.9
2016-08-08T00:07:34.861Z,14.2
2016-08-08T00:07:44.871Z,14.4
2016-08-08T00:07:55.611Z,14.5
2016-08-08T00:08:05.628Z,14.4
2016-08-08T00:08:15.626Z,14.8
2016-08-08T00:08:25.628Z,14.4
2016-08-08T00:08:35.636Z,14.7
2016-08-08T00:08:45.654Z,13.8
2016-08-08T00:08:55.645Z,14.5
2016-08-08T00:09:05.655Z,14.4
2016-08-08T00:09:15.663Z,15
2016-08-08T00:09:24.197Z,14.5
2016-08-08T00:09:35.671Z,14.6
2016-08-08T00:09:45.682Z,14.6
2016-08-08T00:09:55.684Z,14.5
2016-08-08T00:10:05.692Z,14.5
2016-08-08T00:10:14.959Z,15
2016-08-08T00:10:24.976Z,14.7
2016-08-08T00:10:35.709Z,15
2016-08-08T00:10:45.715Z,14.5
2016-08-08T00:10:55.722Z,14.2
2016-08-08T00:11:05.730Z,14.3
2016-08-08T00:11:15.733Z,14.6
2016-08-08T00:11:25.734Z,14.6
2016-08-08T00:11:45.750Z,15.1
2016-08-08T00:11:55.016Z,14.6
2016-08-08T00:12:05.765Z,14.6
2016-08-08T00:12:15.771Z,14.6
2016-08-08T00:12:25.770Z,15.3
2016-08-08T00:12:35.774Z,15.3
2016-08-08T00:12:45.790Z,14.8
2016-08-08T00:12:55.061Z,14.6
2016-08-08T00:13:05.802Z,15.1
2016-08-08T00:13:15.806Z,14.8
2016-08-08T00:13:25.080Z,15.5
2016-08-08T00:13:35.816Z,14.7
2016-08-08T00:13:45.083Z,14.8
2016-08-08T00:13:55.823Z,14.9
2016-08-08T00:14:05.109Z,15.2
2016-08-08T00:14:15.838Z,15
2016-08-08T00:14:25.116Z,15
2016-08-08T00:14:35.847Z,15.1
2016-08-08T00:14:45.854Z,15
2016-08-08T00:14:55.862Z,15.1
2016-08-08T00:15:05.869Z,15.6
2016-08-08T00:15:15.876Z,15.4
2016-08-08T00:15:25.150Z,16
2016-08-08T00:15:35.157Z,16
2016-08-08T00:15:45.893Z,15.5
2016-08-08T00:15:55.894Z,15.8
2016-08-08T00:16:05.903Z,15.7
2016-08-08T00:16:15.175Z,15.9
2016-08-08T00:16:25.175Z,15.8
2016-08-08T00:16:35.919Z,15.4
2016-08-08T00:16:45.925Z,15.8
2016-08-08T00:16:55.933Z,15.4
2016-08-08T00:17:05.208Z,15.6
2016-08-08T00:17:15.214Z,16.1
2016-08-08T00:17:25.955Z,15.5
2016-08-08T00:17:35.960Z,15.7
2016-08-08T00:17:45.963Z,15.7
2016-08-08T00:17:54.504Z,15.9
2016-08-08T00:18:05.975Z,15.6
2016-08-08T00:18:15.250Z,15.7
2016-08-08T00:18:25.988Z,16.2
2016-08-08T00:18:35.993Z,15.9
2016-08-08T00:18:45.997Z,15.9
2016-08-08T00:18:56.004Z,15.9
2016-08-08T00:19:06.010Z,16.3
2016-08-08T00:19:16.016Z,16.3
2016-08-08T00:19:25.283Z,15.9
2016-08-08T00:19:36.029Z,16.2
2016-08-08T00:19:56.040Z,16.1
2016-08-08T00:20:05.319Z,16.3
2016-08-08T00:20:15.314Z,15.8
2016-08-08T00:20:26.055Z,15.9
2016-08-08T00:20:34.599Z,16
2016-08-08T00:20:46.064Z,15.9
2016-08-08T00:20:56.079Z,16.3
2016-08-08T00:21:06.080Z,16
2016-08-08T00:21:15.357Z,16.5
2016-08-08T00:21:25.359Z,16.1
2016-08-08T00:21:36.102Z,16.2
2016-08-08T00:21:46.103Z,16.2
2016-08-08T00:21:56.114Z,16.5
2016-08-08T00:22:06.115Z,16.4
2016-08-08T00:22:16.133Z,16.3
2016-08-08T00:22:26.127Z,16.8
2016-08-08T00:22:36.135Z,16.2
2016-08-08T00:22:44.676Z,16.9
2016-08-08T00:22:56.148Z,16.8
2016-08-08T00:23:04.694Z,16.7
2016-08-08T00:23:16.168Z,16.6
2016-08-08T00:23:25.432Z,16.6
2016-08-08T00:23:35.445Z,16.5
2016-08-08T00:23:46.175Z,17.1
2016-08-08T00:23:56.185Z,16.3
2016-08-08T00:24:06.187Z,16.3
2016-08-08T00:24:16.191Z,16.4
2016-08-08T00:24:26.199Z,16.8
2016-08-08T00:24:36.205Z,16.6
2016-08-08T00:24:45.480Z,16.4
2016-08-08T00:24:55.479Z,16.5
2016-08-08T00:25:05.493Z,16.5
2016-08-08T00:25:16.229Z,16.4
2016-08-08T00:25:25.514Z,16.7
2016-08-08T00:25:36.239Z,16.8
2016-08-08T00:25:46.244Z,16.6
2016-08-08T00:25:56.251Z,16.4
2016-08-08T00:26:06.261Z,16.8
2016-08-08T00:26:16.261Z,17
2016-08-08T00:26:26.268Z,17.3
2016-08-08T00:26:56.291Z,16.8
2016-08-08T00:27:06.293Z,17.1
2016-08-08T00:27:16.301Z,16.8
2016-08-08T00:27:26.304Z,17.1
2016-08-08T00:27:36.309Z,16.8
2016-08-08T00:27:45.599Z,17.4
2016-08-08T00:27:56.322Z,17.1
2016-08-08T00:28:06.327Z,17.3
2016-08-08T00:28:14.867Z,16.6
2016-08-08T00:28:26.342Z,17.3
2016-08-08T00:28:36.347Z,17
2016-08-08T00:28:46.347Z,16.8
2016-08-08T00:28:55.628Z,16.8
2016-08-08T00:29:06.364Z,17
2016-08-08T00:29:15.642Z,17
2016-08-08T00:29:25.649Z,17.2
2016-08-08T00:29:35.653Z,17.1
2016-08-08T00:29:45.651Z,16.7
2016-08-08T00:29:56.396Z,16.7
2016-08-08T00:30:06.406Z,17.1
2016-08-08T00:30:16.408Z,16.9
2016-08-08T00:30:26.412Z,16.8
2016-08-08T00:30:35.690Z,16.7
2016-08-08T00:30:46.425Z,16.7
2016-08-08T00:30:56.435Z,17.4
2016-08-08T00:31:05.695Z,17.5
2016-08-08T00:31:16.440Z,16.8
2016-08-08T00:31:26.454Z,17.5
2016-08-08T00:31:34.998Z,17.2
2016-08-08T00:31:46.461Z,17.2
2016-08-08T00:31:56.473Z,17.2
2016-08-08T00:32:05.738Z,16.9
2016-08-08T00:32:16.477Z,16.9
2016-08-08T00:32:26.494Z,17
2016-08-08T00:32:36.486Z,17.4
2016-08-08T00:32:46.499Z,16.7
2016-08-08T00:32:56.505Z,17.1
2016-08-08T00:33:06.504Z,17.7
2016-08-08T00:33:16.514Z,17.5
2016-08-08T00:33:26.519Z,17.2
2016-08-08T00:33:35.786Z,17.3
2016-08-08T00:33:46.534Z,17.5
2016-08-08T00:33:56.535Z,17.6
2016-08-08T00:34:05.811Z,17.3
2016-08-08T00:34:16.547Z,17.2
2016-08-08T00:34:25.829Z,17.5
2016-08-08T00:34:36.563Z,17.7
2016-08-08T00:34:46.564Z,17.5
2016-08-08T00:34:55.842Z,17.1
2016-08-08T00:35:06.581Z,17.4
2016-08-08T00:35:15.852Z,17.3
2016-08-08T00:35:26.594Z,17.3
2016-08-08T00:35:36.596Z,17.3
2016-08-08T00:35:45.866Z,17.2
2016-08-08T00:35:55.883Z,17.4
2016-08-08T00:36:05.881Z,17.4
2016-08-08T00:36:15.889Z,17.5
2016-08-08T00:36:26.625Z,17.2
2016-08-08T00:36:35.906Z,17.5
2016-08-08T00:36:45.900Z,17.5
2016-08-08T00:36:56.646Z,17.2
2016-08-08T00:37:06.648Z,17.3
2016-08-08T00:37:16.664Z,17.4
2016-08-08T00:37:25.927Z,17.8
2016-08-08T00:37:35.937Z,17.6
2016-08-08T00:37:45.204Z,17.4
2016-08-08T00:37:56.680Z,17.4
2016-08-08T00:38:05.956Z,17.7
2016-08-08T00:38:16.689Z,17.8
2016-08-08T00:38:26.694Z,17.9
2016-08-08T00:38:36.700Z,17.6
2016-08-08T00:38:45.975Z,17.3
2016-08-08T00:38:55.989Z,17.4
2016-08-08T00:39:06.720Z,17.2
2016-08-08T00:39:16.723Z,17.5
2016-08-08T00:39:26.731Z,17.3
2016-08-08T00:39:36.737Z,17.8
2016-08-08T00:39:46.744Z,17.7
2016-08-08T00:39:56.017Z,17.1
2016-08-08T00:40:06.755Z,17.5
2016-08-08T00:40:16.026Z,17.3
2016-08-08T00:40:26.774Z,17.3
2016-08-08T00:40:36.772Z,17.2
2016-08-08T00:40:46.043Z,17.2
2016-08-08T00:40:56.051Z,17.4
2016-08-08T00:41:06.796Z,17.2
2016-08-08T00:41:16.063Z,17.5
2016-08-08T00:41:26.796Z,17.6
2016-08-08T00:41:44.714Z,17.3
2016-08-08T00:41:56.820Z,17.4
2016-08-08T00:42:06.093Z,17.2
2016-08-08T00:42:15.374Z,17.4
2016-08-08T00:42:26.839Z,17.4
2016-08-08T00:42:36.840Z,17.3
2016-08-08T00:42:46.124Z,17.4
2016-08-08T00:42:56.858Z,17.3
2016-08-08T00:43:06.862Z,16.9
2016-08-08T00:43:16.871Z,17.5
2016-08-08T00:43:26.876Z,17.6
2016-08-08T00:43:36.886Z,17.4
2016-08-08T00:43:46.156Z,17.4
2016-08-08T00:43:56.890Z,17.2
2016-08-08T00:44:06.904Z,17.8
2016-08-08T00:44:16.908Z,17.7
2016-08-08T00:44:26.179Z,17.5
2016-08-08T00:44:36.194Z,17.7
2016-08-08T00:44:46.923Z,17.5
2016-08-08T00:44:56.926Z,17.7
2016-08-08T00:45:06.201Z,17.4
2016-08-08T00:45:16.939Z,17.6
2016-08-08T00:45:26.954Z,17.5
2016-08-08T00:45:36.950Z,17.5
2016-08-08T00:45:45.502Z,17.4
2016-08-08T00:45:56.224Z,17.5
2016-08-08T00:46:06.973Z,17.1
2016-08-08T00:46:16.245Z,17.4
2016-08-08T00:46:26.982Z,17.3
2016-08-08T00:46:36.985Z,17.6
2016-08-08T00:46:46.993Z,17.3
2016-08-08T00:46:56.997Z,17.3
2016-08-08T00:47:07.005Z,17.4
2016-08-08T00:47:16.280Z,17.4
2016-08-08T00:47:27.013Z,17.6
2016-08-08T00:47:37.021Z,17.4
2016-08-08T00:47:47.026Z,17.4
2016-08-08T00:47:56.300Z,17.7
2016-08-08T00:48:07.036Z,17.9
2016-08-08T00:48:17.042Z,17.7
2016-08-08T00:48:25.580Z,17.4
2016-08-08T00:48:37.056Z,17.8
2016-08-08T00:48:47.065Z,17.3
2016-08-08T00:48:57.067Z,17.4
2016-08-08T00:49:07.069Z,17.2
2016-08-08T00:49:16.350Z,17.6
2016-08-08T00:49:27.086Z,17.8
2016-08-08T00:49:37.095Z,17.9
2016-08-08T00:49:47.097Z,17.6
2016-08-08T00:49:56.376Z,17.4
2016-08-08T00:50:06.392Z,17.1
2016-08-08T00:50:17.116Z,17.1
2016-08-08T00:50:26.386Z,18
2016-08-08T00:50:37.135Z,17.8
2016-08-08T00:50:47.133Z,18.1
2016-08-08T00:50:57.138Z,17.6
2016-08-08T00:51:06.405Z,17.5
2016-08-08T00:51:17.147Z,17.5
2016-08-08T00:51:27.161Z,17.4
2016-08-08T00:51:37.162Z,17.5
2016-08-08T00:51:47.175Z,17.6
2016-08-08T00:51:57.173Z,17.5
2016-08-08T00:52:07.186Z,17.6
2016-08-08T00:52:17.192Z,17.4
2016-08-08T00:52:27.196Z,17.8
2016-08-08T00:52:37.197Z,17.6
2016-08-08T00:52:47.205Z,17.7
2016-08-08T00:52:57.212Z,18.2
2016-08-08T00:53:07.222Z,17.8
2016-08-08T00:53:15.753Z,17.5
2016-08-08T00:53:27.224Z,17.8
2016-08-08T00:53:37.240Z,17.4
2016-08-08T00:53:47.238Z,17.9
2016-08-08T00:53:56.523Z,17.8
2016-08-08T00:54:07.248Z,17.5
2016-08-08T00:54:17.256Z,17.8
2016-08-08T00:54:27.263Z,17.8
2016-08-08T00:54:37.283Z,18.1
2016-08-08T00:54:46.546Z,17.9
2016-08-08T00:54:57.280Z,17.8
2016-08-08T00:55:07.285Z,17.8
2016-08-08T00:55:17.296Z,17.7
2016-08-08T00:55:27.298Z,17.6
2016-08-08T00:55:37.303Z,17.6
2016-08-08T00:55:47.317Z,17.9
2016-08-08T00:55:56.592Z,17.6
2016-08-08T00:56:06.593Z,17.6
2016-08-08T00:56:15.865Z,18.5
2016-08-08T00:56:27.336Z,18
2016-08-08T00:56:36.602Z,18.1
2016-08-08T00:56:56.624Z,17.8
2016-08-08T00:57:06.627Z,17.5
2016-08-08T00:57:17.359Z,17.8
2016-08-08T00:57:27.372Z,17.8
2016-08-08T00:57:37.377Z,17.6
2016-08-08T00:57:47.383Z,17.7
2016-08-08T00:57:56.660Z,17.6
2016-08-08T00:58:07.397Z,17.7
2016-08-08T00:58:17.396Z,17.6
2016-08-08T00:58:26.681Z,17.8
2016-08-08T00:58:37.409Z,17.7
2016-08-08T00:58:47.420Z,17.6
2016-08-08T00:58:57.425Z,17.5
2016-08-08T00:59:07.427Z,18.2
2016-08-08T00:59:17.437Z,17.8
2016-08-08T00:59:27.452Z,17.9
2016-08-08T00:59:37.450Z,18
2016-08-08T00:59:47.448Z,17.8
2016-08-08T00:59:57.459Z,18.3
2016-08-08T01:00:07.464Z,18.2
2016-08-08T01:00:16.742Z,17.9
2016-08-08T01:00:27.474Z,18.1
2016-08-08T01:00:37.484Z,18.4
2016-08-08T01:00:47.489Z,18.2
2016-08-08T01:00:57.495Z,18.2
2016-08-08T01:01:06.769Z,18.6
2016-08-08T01:01:16.037Z,18.1
2016-08-08T01:01:26.785Z,18.1
2016-08-08T01:01:37.517Z,18.1
2016-08-08T01:01:47.523Z,18.5
2016-08-08T01:01:56.796Z,18.4
2016-08-08T01:02:06.805Z,18.5
2016-08-08T01:02:17.548Z,18.2
2016-08-08T01:02:27.543Z,18.8
2016-08-08T01:02:37.555Z,18.9
2016-08-08T01:02:47.561Z,18.5
2016-08-08T01:02:57.573Z,18.8
2016-08-08T01:03:06.838Z,18.4
2016-08-08T01:03:16.845Z,19
2016-08-08T01:03:27.582Z,18.6
2016-08-08T01:03:37.590Z,18.6
2016-08-08T01:03:47.594Z,19.1
2016-08-08T01:03:57.599Z,18.8
2016-08-08T01:04:07.607Z,18.6
2016-08-08T01:04:17.619Z,18.8
2016-08-08T01:04:27.611Z,18.6
2016-08-08T01:04:36.894Z,18.4
2016-08-08T01:04:47.632Z,18.9
2016-08-08T01:04:57.637Z,18.4
2016-08-08T01:05:07.645Z,18.5
2016-08-08T01:05:17.649Z,18.5
2016-08-08T01:05:26.193Z,18.6
2016-08-08T01:05:36.920Z,19.1
2016-08-08T01:05:47.665Z,18.3
2016-08-08T01:05:57.668Z,18.3
2016-08-08T01:06:06.942Z,18.3
2016-08-08T01:06:17.685Z,18.8
2016-08-08T01:06:26.950Z,19.1
2016-08-08T01:06:36.965Z,18.9
2016-08-08T01:06:47.706Z,18.8
2016-08-08T01:06:56.976Z,19.1
2016-08-08T01:07:06.978Z,18.8
2016-08-08T01:07:16.985Z,19.3
2016-08-08T01:07:26.997Z,18.7
2016-08-08T01:07:37.729Z,18.7
2016-08-08T01:07:47.740Z,18.6
2016-08-08T01:07:57.010Z,18.7
2016-08-08T01:08:07.747Z,18.7
2016-08-08T01:08:17.753Z,18.8
2016-08-08T01:08:27.762Z,19.2
2016-08-08T01:08:37.036Z,19.4
2016-08-08T01:08:47.773Z,19.1
2016-08-08T01:08:57.047Z,19
2016-08-08T01:09:07.782Z,19.4
2016-08-08T01:09:17.788Z,18.8
2016-08-08T01:09:27.796Z,18.7
2016-08-08T01:09:37.801Z,19.5
2016-08-08T01:09:47.078Z,19.4
2016-08-08T01:09:57.081Z,19.2
2016-08-08T01:10:07.091Z,19.5
2016-08-08T01:10:17.832Z,19.7
2016-08-08T01:10:27.099Z,20
2016-08-08T01:10:37.839Z,19.5
2016-08-08T01:10:47.841Z,19.6
2016-08-08T01:10:57.856Z,19.3
2016-08-08T01:11:07.126Z,19
2016-08-08T01:11:17.121Z,19.7
2016-08-08T01:11:27.860Z,19.6
2016-08-08T01:11:47.150Z,19.2
2016-08-08T01:11:57.151Z,19.4
2016-08-08T01:12:07.889Z,19.6
2016-08-08T01:12:17.897Z,19.4
2016-08-08T01:12:27.898Z,20.4
2016-08-08T01:12:37.906Z,19.5
2016-08-08T01:12:47.922Z,19.4
2016-08-08T01:12:57.918Z,19.9
2016-08-08T01:13:07.187Z,19.9
2016-08-08T01:13:17.931Z,19.7
2016-08-08T01:13:27.215Z,19.8
2016-08-08T01:13:37.944Z,19.6
2016-08-08T01:13:47.964Z,19.9
2016-08-08T01:13:57.226Z,19.7
2016-08-08T01:14:07.228Z,19.7
2016-08-08T01:14:17.236Z,20.3
2016-08-08T01:14:27.971Z,19.5
2016-08-08T01:14:37.250Z,20.3
2016-08-08T01:14:47.986Z,19.8
2016-08-08T01:14:57.991Z,19.5
2016-08-08T01:15:08.002Z,19.9
2016-08-08T01:15:18.000Z,19.6
2016-08-08T01:15:28.006Z,20
2016-08-08T01:15:38.013Z,20.1
2016-08-08T01:15:47.299Z,20.1
2016-08-08T01:15:58.028Z,20
2016-08-08T01:16:08.026Z,19.9
2016-08-08T01:16:18.037Z,19.3
2016-08-08T01:16:27.307Z,19.9
2016-08-08T01:16:38.052Z,19.6
2016-08-08T01:16:47.322Z,19.5
2016-08-08T01:16:57.331Z,19.7
2016-08-08T01:17:08.065Z,19.9
2016-08-08T01:17:17.337Z,19.9
2016-08-08T01:17:28.086Z,20.1
2016-08-08T01:17:38.087Z,19.6
2016-08-08T01:17:48.092Z,19.6
2016-08-08T01:17:57.364Z,19.2
2016-08-08T01:18:08.109Z,19.6
2016-08-08T01:18:18.109Z,19.3
2016-08-08T01:18:28.115Z,19.5
2016-08-08T01:18:37.391Z,19.4
2016-08-08T01:18:47.398Z,19.5
2016-08-08T01:18:57.396Z,19.1
2016-08-08T01:19:07.400Z,19
2016-08-08T01:19:18.145Z,19.1
2016-08-08T01:19:28.153Z,19.5
2016-08-08T01:19:38.155Z,19.2
2016-08-08T01:19:48.165Z,19.4
2016-08-08T01:19:58.165Z,19.5
2016-08-08T01:20:08.171Z,18.8
2016-08-08T01:20:18.181Z,19.4
2016-08-08T01:20:27.453Z,19.3
2016-08-08T01:20:36.727Z,19.3
2016-08-08T01:20:47.468Z,18.7
2016-08-08T01:20:58.200Z,19.1
2016-08-08T01:21:08.217Z,19.3
2016-08-08T01:21:16.756Z,19.4
2016-08-08T01:21:28.224Z,18.6
2016-08-08T01:21:38.228Z,18.7
2016-08-08T01:21:48.235Z,19
2016-08-08T01:21:56.778Z,19
2016-08-08T01:22:07.515Z,19.1
2016-08-08T01:22:18.254Z,19.3
2016-08-08T01:22:28.257Z,19.9
2016-08-08T01:22:37.532Z,19.7
2016-08-08T01:22:47.542Z,19.9
2016-08-08T01:22:58.277Z,19.3
2016-08-08T01:23:08.281Z,19.1
2016-08-08T01:23:18.287Z,19.1
2016-08-08T01:23:28.296Z,19.1
2016-08-08T01:23:37.566Z,18.7
2016-08-08T01:23:48.303Z,18.4
2016-08-08T01:23:58.309Z,19.7
2016-08-08T01:24:08.318Z,19.7
2016-08-08T01:24:17.585Z,19.6
2016-08-08T01:24:28.323Z,19.8
2016-08-08T01:24:37.603Z,19.5
2016-08-08T01:24:47.602Z,19.6
2016-08-08T01:24:58.346Z,19.5
2016-08-08T01:25:08.353Z,19.6
2016-08-08T01:25:18.368Z,20.3
2016-08-08T01:25:26.898Z,20.1
2016-08-08T01:25:37.638Z,19.9
2016-08-08T01:25:48.384Z,19.6
2016-08-08T01:25:58.381Z,19.6
2016-08-08T01:26:06.922Z,19.9
2016-08-08T01:26:18.387Z,19.7
2016-08-08T01:26:28.396Z,19.6
2016-08-08T01:26:38.406Z,19.3
2016-08-08T01:26:57.056Z,20.7
2016-08-08T01:27:06.953Z,20.7
2016-08-08T01:27:18.425Z,20.4
2016-08-08T01:27:28.429Z,19.7
2016-08-08T01:27:38.439Z,20.2
2016-08-08T01:27:47.716Z,20.8
2016-08-08T01:27:57.719Z,20.5
2016-08-08T01:28:07.729Z,19.9
2016-08-08T01:28:18.460Z,20
2016-08-08T01:28:27.013Z,20.4
2016-08-08T01:28:38.478Z,20.2
2016-08-08T01:28:48.474Z,20.7
2016-08-08T01:28:57.746Z,20.4
2016-08-08T01:29:08.490Z,20.9
2016-08-08T01:29:18.501Z,20.5
2016-08-08T01:29:27.035Z,21
2016-08-08T01:29:38.509Z,20.5
2016-08-08T01:29:48.518Z,20.8
2016-08-08T01:29:58.515Z,19.8
2016-08-08T01:30:07.798Z,20.8
2016-08-08T01:30:17.803Z,21
2016-08-08T01:30:28.538Z,21.2
2016-08-08T01:30:37.818Z,20.5
2016-08-08T01:30:47.092Z,20.1
2016-08-08T01:30:58.562Z,20.9
2016-08-08T01:31:08.563Z,20.3
2016-08-08T01:31:17.843Z,20.3
2016-08-08T01:31:27.851Z,20.9
2016-08-08T01:31:37.123Z,20.5
2016-08-08T01:31:48.587Z,20.6
2016-08-08T01:31:58.593Z,20.9
2016-08-08T01:32:08.600Z,20.9
2016-08-08T01:32:18.617Z,20.7
2016-08-08T01:32:28.613Z,20.9
2016-08-08T01:32:38.616Z,21.2
2016-08-08T01:32:48.622Z,20.4
2016-08-08T01:32:58.630Z,21.8
2016-08-08T01:33:07.906Z,21.3
2016-08-08T01:33:18.646Z,21
2016-08-08T01:33:28.646Z,20.4
2016-08-08T01:33:38.652Z,20
2016-08-08T01:33:48.659Z,20.8
2016-08-08T01:33:58.673Z,20.8
2016-08-08T01:34:08.667Z,20.8
2016-08-08T01:34:18.677Z,20.9
2016-08-08T01:34:28.683Z,21.3
2016-08-08T01:34:38.690Z,20.6
2016-08-08T01:34:48.691Z,21.2
2016-08-08T01:34:58.697Z,20.5
2016-08-08T01:35:08.703Z,21.3
2016-08-08T01:35:18.713Z,21.7
2016-08-08T01:35:28.718Z,20.8
2016-08-08T01:35:38.724Z,20.8
2016-08-08T01:35:48.726Z,21.8
2016-08-08T01:35:58.737Z,20.6
2016-08-08T01:36:08.744Z,21.2
2016-08-08T01:36:18.747Z,21.3
2016-08-08T01:36:28.755Z,21.4
2016-08-08T01:36:38.042Z,20.6
2016-08-08T01:36:48.035Z,20.9
2016-08-08T01:36:58.770Z,21.3
2016-08-08T01:37:08.779Z,21.1
2016-08-08T01:37:18.045Z,20.9
2016-08-08T01:37:28.789Z,20.7
2016-08-08T01:37:38.796Z,20.8
2016-08-08T01:37:48.069Z,20.7
2016-08-08T01:37:58.077Z,21.1
2016-08-08T01:38:08.813Z,20.8
2016-08-08T01:38:18.088Z,21
2016-08-08T01:38:28.825Z,20.7
2016-08-08T01:38:38.840Z,20.7
2016-08-08T01:38:48.833Z,20.8
2016-08-08T01:38:58.840Z,20.7
2016-08-08T01:39:08.854Z,21.1
2016-08-08T01:39:18.123Z,21.1
2016-08-08T01:39:28.128Z,21
2016-08-08T01:39:38.866Z,20.9
2016-08-08T01:39:48.872Z,21.5
2016-08-08T01:39:58.876Z,20.8
2016-08-08T01:40:08.883Z,21.2
2016-08-08T01:40:18.888Z,21.1
2016-08-08T01:40:28.168Z,21.5
2016-08-08T01:40:38.904Z,21.1
2016-08-08T01:40:48.909Z,21.4
2016-08-08T01:40:58.910Z,21.1
2016-08-08T01:41:08.920Z,21
2016-08-08T01:41:18.926Z,20.8
2016-08-08T01:41:28.937Z,21
2016-08-08T01:41:38.940Z,21.1
2016-08-08T01:42:08.224Z,21.2
2016-08-08T01:42:18.960Z,21.6
2016-08-08T01:42:28.229Z,21.3
2016-08-08T01:42:38.973Z,21.1
2016-08-08T01:42:48.979Z,21.5
2016-08-08T01:42:58.998Z,21.4
2016-08-08T01:43:08.989Z,21.2
2016-08-08T01:43:18.263Z,21.2
2016-08-08T01:43:28.270Z,21.2
2016-08-08T01:43:39.012Z,21
2016-08-08T01:43:47.558Z,21.5
2016-08-08T01:43:58.286Z,21.2
2016-08-08T01:44:07.557Z,21.2
2016-08-08T01:44:19.032Z,21.7
2016-08-08T01:44:29.038Z,21.4
2016-08-08T01:44:38.314Z,21.4
2016-08-08T01:44:49.049Z,21.5
2016-08-08T01:44:59.060Z,21.1
2016-08-08T01:45:08.331Z,21.2
2016-08-08T01:45:19.068Z,21.2
2016-08-08T01:45:29.077Z,21.4
2016-08-08T01:45:38.350Z,21.2
2016-08-08T01:45:48.355Z,21.7
2016-08-08T01:45:59.092Z,21.3
2016-08-08T01:46:08.368Z,21.4
2016-08-08T01:46:19.105Z,21
2016-08-08T01:46:29.114Z,21.5
2016-08-08T01:46:38.379Z,21.6
2016-08-08T01:46:48.391Z,21.1
2016-08-08T01:46:59.128Z,21.7
2016-08-08T01:47:09.133Z,21.7
2016-08-08T01:47:19.137Z,21.2
2016-08-08T01:47:29.146Z,21.2
2016-08-08T01:47:39.148Z,21.9
2016-08-08T01:47:49.156Z,21.3
2016-08-08T01:47:58.433Z,21.2
2016-08-08T01:48:08.444Z,21.3
2016-08-08T01:48:18.445Z,21.3
2016-08-08T01:48:29.178Z,21.4
2016-08-08T01:48:39.190Z,21
2016-08-08T01:48:49.194Z,21.5
2016-08-08T01:48:59.194Z,21.2
2016-08-08T01:49:08.471Z,21.8
2016-08-08T01:49:19.212Z,21.3
2016-08-08T01:49:28.489Z,21.2
2016-08-08T01:49:38.486Z,21.8
2016-08-08T01:49:49.229Z,21.4
2016-08-08T01:49:59.240Z,21.2
2016-08-08T01:50:09.239Z,21.7
2016-08-08T01:50:19.248Z,21.4
2016-08-08T01:50:29.256Z,21.4
2016-08-08T01:50:38.520Z,21.1
2016-08-08T01:50:49.265Z,21.9
2016-08-08T01:50:57.810Z,21.6
2016-08-08T01:51:07.811Z,21.2
2016-08-08T01:51:19.280Z,21.5
2016-08-08T01:51:29.282Z,21.6
2016-08-08T01:51:39.296Z,21.2
2016-08-08T01:51:49.302Z,21.7
2016-08-08T01:51:58.567Z,21.4
2016-08-08T01:52:09.314Z,21.3
2016-08-08T01:52:19.315Z,21.3
2016-08-08T01:52:28.595Z,21.3
2016-08-08T01:52:38.598Z,21.7
2016-08-08T01:52:48.606Z,21.2
2016-08-08T01:52:59.346Z,21.7
2016-08-08T01:53:09.349Z,21.3
2016-08-08T01:53:19.354Z,21.8
2016-08-08T01:53:29.364Z,21.4
2016-08-08T01:53:39.364Z,22
2016-08-08T01:53:48.631Z,22
2016-08-08T01:53:58.650Z,21.8
2016-08-08T01:54:08.642Z,21.9
2016-08-08T01:54:18.659Z,21.6
2016-08-08T01:54:27.936Z,21.8
2016-08-08T01:54:39.400Z,21.7
2016-08-08T01:54:48.679Z,21.6
2016-08-08T01:54:59.415Z,22.3
2016-08-08T01:55:09.416Z,21.9
2016-08-08T01:55:19.423Z,22.2
2016-08-08T01:55:29.431Z,23.2
2016-08-08T01:55:37.966Z,22.6
2016-08-08T01:55:49.439Z,22.8
2016-08-08T01:55:58.717Z,22.3
2016-08-08T01:56:09.454Z,22.2
2016-08-08T01:56:19.459Z,23
2016-08-08T01:56:28.734Z,22.6
2016-08-08T01:56:39.472Z,22.5
2016-08-08T01:57:09.495Z,22.2
2016-08-08T01:57:18.035Z,22.7
2016-08-08T01:57:28.771Z,23
2016-08-08T01:57:39.514Z,23.2
2016-08-08T01:57:48.776Z,22.3
2016-08-08T01:57:59.530Z,22.5
2016-08-08T01:58:09.530Z,22.9
2016-08-08T01:58:19.531Z,22.5
2016-08-08T01:58:29.543Z,22.4
2016-08-08T01:58:39.540Z,22.3
2016-08-08T01:58:48.824Z,22.4
2016-08-08T01:58:59.557Z,23.5
2016-08-08T01:59:08.825Z,23.1
2016-08-08T01:59:18.110Z,23.5
2016-08-08T01:59:28.836Z,23.1
2016-08-08T01:59:39.579Z,22.7
2016-08-08T01:59:48.854Z,23.1
2016-08-08T01:59:59.599Z,22.7
2016-08-08T02:00:09.593Z,22.4
2016-08-08T02:00:19.608Z,22.6
2016-08-08T02:00:29.614Z,22.5
2016-08-08T02:00:38.883Z,22.9
2016-08-08T02:00:48.886Z,23.1
2016-08-08T02:00:59.626Z,23
2016-08-08T02:01:08.900Z,23.1
2016-08-08T02:01:18.908Z,23.5
2016-08-08T02:01:29.643Z,22.3
2016-08-08T02:01:38.921Z,22.9
2016-08-08T02:01:49.655Z,22.5
2016-08-08T02:01:58.932Z,23.5
2016-08-08T02:02:09.664Z,23.3
2016-08-08T02:02:19.673Z,23.9
2016-08-08T02:02:29.677Z,23.4
2016-08-08T02:02:39.685Z,23.1
2016-08-08T02:02:48.960Z,23.9
2016-08-08T02:02:58.973Z,23.6
2016-08-08T02:03:09.707Z,24
2016-08-08T02:03:19.707Z,23.9
2016-08-08T02:03:28.986Z,23.1
2016-08-08T02:03:39.721Z,23.6
2016-08-08T02:03:48.999Z,23.2
2016-08-08T02:03:59.733Z,23.3
2016-08-08T02:04:09.740Z,23.3
2016-08-08T02:04:19.005Z,22.6
2016-08-08T02:04:29.749Z,22.9
2016-08-08T02:04:39.756Z,23.3
2016-08-08T02:04:49.770Z,23.1
2016-08-08T02:04:59.043Z,23
2016-08-08T02:05:08.316Z,22.8
2016-08-08T02:05:19.784Z,22.9
2016-08-08T02:05:29.789Z,22.6
2016-08-08T02:05:39.790Z,23.8
2016-08-08T02:05:49.799Z,22.8
2016-08-08T02:05:59.811Z,22.8
2016-08-08T02:06:09.811Z,22.9
2016-08-08T02:06:19.083Z,23
2016-08-08T02:06:29.090Z,23.3
2016-08-08T02:06:39.831Z,23.2
2016-08-08T02:06:49.832Z,23.2
2016-08-08T02:06:59.108Z,24
2016-08-08T02:07:08.377Z,23.2
2016-08-08T02:07:19.852Z,23.4
2016-08-08T02:07:29.873Z,23.1
2016-08-08T02:07:39.865Z,22.7
2016-08-08T02:07:48.404Z,22.6
2016-08-08T02:07:59.144Z,22.5
2016-08-08T02:08:09.882Z,22.4
2016-08-08T02:08:19.888Z,23
2016-08-08T02:08:29.164Z,22.8
2016-08-08T02:08:39.902Z,22.6
2016-08-08T02:08:49.178Z,22.7
2016-08-08T02:08:59.913Z,23.1
2016-08-08T02:09:09.921Z,23.1
2016-08-08T02:09:19.930Z,22.9
2016-08-08T02:09:29.191Z,22.5
2016-08-08T02:09:38.467Z,23.6
2016-08-08T02:09:49.956Z,23.1
2016-08-08T02:09:59.223Z,22.5
2016-08-08T02:10:09.951Z,22.5
2016-08-08T02:10:19.961Z,22.8
2016-08-08T02:10:29.965Z,22.6
2016-08-08T02:10:39.255Z,22.6
2016-08-08T02:10:49.977Z,22.9
2016-08-08T02:10:59.982Z,22.5
2016-08-08T02:11:09.260Z,23
2016-08-08T02:11:18.537Z,23.2
2016-08-08T02:11:30.000Z,23.3
2016-08-08T02:11:40.006Z,22.9
2016-08-08T02:12:10.024Z,22.5
2016-08-08T02:12:19.299Z,22.5
2016-08-08T02:12:28.571Z,23.1
2016-08-08T02:12:39.311Z,22.4
2016-08-08T02:12:49.320Z,22.6
2016-08-08T02:13:00.053Z,22.9
2016-08-08T02:13:10.069Z,22.4
2016-08-08T02:13:20.064Z,22.8
2016-08-08T02:13:30.075Z,22.7
2016-08-08T02:13:40.075Z,22.6
2016-08-08T02:13:49.349Z,22.7
2016-08-08T02:13:59.352Z,22.5
2016-08-08T02:14:10.096Z,22.5
2016-08-08T02:14:19.369Z,22.4
2016-08-08T02:14:30.110Z,22.7
2016-08-08T02:14:39.386Z,22.9
2016-08-08T02:14:50.120Z,22.6
2016-08-08T02:15:00.130Z,22.7
2016-08-08T02:15:10.138Z,22.5
2016-08-08T02:15:19.406Z,22.6
2016-08-08T02:15:30.146Z,22.6
2016-08-08T02:15:40.145Z,22.6
2016-08-08T02:15:50.155Z,23
2016-08-08T02:16:00.158Z,22.9
2016-08-08T02:16:10.169Z,22.5